RYR33XH EGSS-LBSF
Flight info
| Callsign | RYR33XH |
|---|---|
| Flight time | N/A |
| Altitude | 37000 |
| Route | CLN5S CLN P44 RATLO M197 REDFA DCT TACHA DCT SUSET DCT OTMEC DCT OMELO DCT PEPIK DCT KEROP DCT PELOV DCT OSVIX DCT RAVAK DCT NISVA NISVA5D |
| Aircraft | B738/M-SDE2E3FGHIRWXY/LB1 |
Departure
| Time | 2026-05-05 11:41 |
|---|---|
| Airport | London Stansted Airport (EGSS) |
Arrival
| Time | N/A |
|---|---|
| Airport | Sofia Airport (LBSF) |
| Time | Latitude | Longitude | Altitude | Speed | Heading |
|---|---|---|---|---|---|
| 2026-05-05 11:15 | 51.89004 | 0.25748 | 348 ft | 0 kts | 43° |
| 2026-05-05 11:29 | 51.89003 | 0.25747 | 348 ft | 2 kts | 43° |
| 2026-05-05 11:30 | 51.88986 | 0.25721 | 353 ft | 4 kts | 46° |
| 2026-05-05 11:30 | 51.88977 | 0.25704 | 357 ft | 0 kts | 61° |
| 2026-05-05 11:31 | 51.88980 | 0.25705 | 356 ft | 1 kts | 26° |
| 2026-05-05 11:31 | 51.88984 | 0.25698 | 355 ft | 1 kts | 321° |
| 2026-05-05 11:31 | 51.88986 | 0.25689 | 353 ft | 0 kts | 292° |
| 2026-05-05 11:32 | 51.88993 | 0.25660 | 350 ft | 6 kts | 292° |
| 2026-05-05 11:33 | 51.89043 | 0.25562 | 350 ft | 15 kts | 312° |
| 2026-05-05 11:33 | 51.89090 | 0.25477 | 352 ft | 0 kts | 312° |
| 2026-05-05 11:33 | 51.89093 | 0.25473 | 352 ft | 4 kts | 312° |
| 2026-05-05 11:33 | 51.89148 | 0.25379 | 355 ft | 14 kts | 312° |
| 2026-05-05 11:34 | 51.89175 | 0.25324 | 352 ft | 0 kts | 300° |
| 2026-05-05 11:34 | 51.89185 | 0.25293 | 353 ft | 11 kts | 297° |
| 2026-05-05 11:34 | 51.89240 | 0.25140 | 351 ft | 6 kts | 274° |
| 2026-05-05 11:34 | 51.89240 | 0.25138 | 351 ft | 0 kts | 274° |
| 2026-05-05 11:35 | 51.89239 | 0.25128 | 350 ft | 6 kts | 262° |
| 2026-05-05 11:35 | 51.89184 | 0.24989 | 348 ft | 24 kts | 222° |
| 2026-05-05 11:35 | 51.89033 | 0.24763 | 353 ft | 31 kts | 223° |
| 2026-05-05 11:35 | 51.88874 | 0.24525 | 352 ft | 30 kts | 223° |
| 2026-05-05 11:36 | 51.88725 | 0.24302 | 352 ft | 28 kts | 223° |
| 2026-05-05 11:36 | 51.88585 | 0.24091 | 355 ft | 27 kts | 223° |
| 2026-05-05 11:36 | 51.88452 | 0.23898 | 348 ft | 25 kts | 217° |
| 2026-05-05 11:36 | 51.88331 | 0.23711 | 352 ft | 23 kts | 223° |
| 2026-05-05 11:37 | 51.88208 | 0.23526 | 352 ft | 29 kts | 223° |
| 2026-05-05 11:37 | 51.88055 | 0.23297 | 348 ft | 30 kts | 223° |
| 2026-05-05 11:37 | 51.87907 | 0.23075 | 351 ft | 28 kts | 222° |
| 2026-05-05 11:37 | 51.87768 | 0.22867 | 354 ft | 26 kts | 223° |
| 2026-05-05 11:38 | 51.87639 | 0.22674 | 348 ft | 25 kts | 223° |
| 2026-05-05 11:38 | 51.87519 | 0.22494 | 347 ft | 22 kts | 223° |
| 2026-05-05 11:38 | 51.87451 | 0.22392 | 336 ft | 5 kts | 223° |
| 2026-05-05 11:38 | 51.87423 | 0.22350 | 338 ft | 6 kts | 226° |
| 2026-05-05 11:39 | 51.87400 | 0.22286 | 335 ft | 7 kts | 251° |
| 2026-05-05 11:39 | 51.87407 | 0.22205 | 334 ft | 10 kts | 295° |
| 2026-05-05 11:39 | 51.87432 | 0.22147 | 334 ft | 0 kts | 318° |
| 2026-05-05 11:40 | 51.87433 | 0.22144 | 334 ft | 4 kts | 318° |
| 2026-05-05 11:40 | 51.87506 | 0.22042 | 333 ft | 17 kts | 339° |
| 2026-05-05 11:40 | 51.87557 | 0.22067 | 333 ft | 0 kts | 41° |
| 2026-05-05 11:40 | 51.87578 | 0.22097 | 334 ft | 12 kts | 42° |
| 2026-05-05 11:41 | 51.87799 | 0.22428 | 351 ft | 83 kts | 43° |
| 2026-05-05 11:41 | 51.88409 | 0.23345 | 355 ft | 153 kts | 43° |
| 2026-05-05 11:41 | 51.89245 | 0.24609 | 987 ft | 170 kts | 43° |
| 2026-05-05 11:41 | 51.90110 | 0.25959 | 2016 ft | 175 kts | 44° |
| 2026-05-05 11:42 | 51.90982 | 0.27357 | 2978 ft | 178 kts | 52° |
| 2026-05-05 11:42 | 51.91530 | 0.29147 | 3843 ft | 183 kts | 75° |
| 2026-05-05 11:42 | 51.91562 | 0.31361 | 4003 ft | 214 kts | 101° |
| 2026-05-05 11:42 | 51.90976 | 0.33734 | 4285 ft | 234 kts | 113° |
| 2026-05-05 11:43 | 51.90289 | 0.36097 | 4882 ft | 235 kts | 113° |
| 2026-05-05 11:43 | 51.89593 | 0.38537 | 4988 ft | 240 kts | 112° |
| 2026-05-05 11:43 | 51.88891 | 0.40998 | 4992 ft | 241 kts | 113° |
| 2026-05-05 11:43 | 51.88166 | 0.43474 | 4984 ft | 240 kts | 113° |
| 2026-05-05 11:44 | 51.87455 | 0.45890 | 4996 ft | 241 kts | 113° |
| 2026-05-05 11:44 | 51.86735 | 0.48339 | 4994 ft | 242 kts | 113° |
| 2026-05-05 11:44 | 51.86008 | 0.50815 | 5207 ft | 245 kts | 113° |
| 2026-05-05 11:44 | 51.85273 | 0.53322 | 5724 ft | 256 kts | 113° |
| 2026-05-05 11:45 | 51.84490 | 0.55987 | 5952 ft | 265 kts | 114° |
| 2026-05-05 11:45 | 51.83689 | 0.58722 | 5984 ft | 270 kts | 111° |
| 2026-05-05 11:45 | 51.83130 | 0.61615 | 5986 ft | 267 kts | 99° |
| 2026-05-05 11:45 | 51.82928 | 0.64554 | 5989 ft | 267 kts | 90° |
| 2026-05-05 11:46 | 51.82996 | 0.67569 | 5979 ft | 268 kts | 84° |
| 2026-05-05 11:46 | 51.83148 | 0.70574 | 5979 ft | 268 kts | 83° |
| 2026-05-05 11:46 | 51.83306 | 0.73579 | 6103 ft | 269 kts | 84° |
| 2026-05-05 11:46 | 51.83436 | 0.76625 | 6794 ft | 272 kts | 84° |
| 2026-05-05 11:47 | 51.83557 | 0.79696 | 7596 ft | 275 kts | 85° |
| 2026-05-05 11:47 | 51.83709 | 0.82802 | 8307 ft | 280 kts | 78° |
| 2026-05-05 11:47 | 51.84479 | 0.85683 | 9040 ft | 282 kts | 51° |
| 2026-05-05 11:47 | 51.85832 | 0.88002 | 9811 ft | 286 kts | 43° |
| 2026-05-05 11:48 | 51.88897 | 0.92534 | 10511 ft | 321 kts | 41° |
| 2026-05-05 11:48 | 51.90592 | 0.94998 | 11012 ft | 331 kts | 41° |
| 2026-05-05 11:48 | 51.92319 | 0.97498 | 11727 ft | 335 kts | 41° |
| 2026-05-05 11:49 | 51.94068 | 1.00023 | 12495 ft | 338 kts | 41° |
| 2026-05-05 11:49 | 51.95834 | 1.02568 | 13242 ft | 342 kts | 41° |
| 2026-05-05 11:49 | 51.97584 | 1.05224 | 13956 ft | 347 kts | 49° |
| 2026-05-05 11:49 | 51.99050 | 1.08367 | 14648 ft | 351 kts | 55° |
| 2026-05-05 11:50 | 52.00434 | 1.11649 | 15358 ft | 355 kts | 56° |
| 2026-05-05 11:50 | 52.01820 | 1.14987 | 16091 ft | 358 kts | 56° |
| 2026-05-05 11:50 | 52.03217 | 1.18363 | 16791 ft | 363 kts | 56° |
| 2026-05-05 11:50 | 52.04631 | 1.21787 | 17484 ft | 367 kts | 56° |
| 2026-05-05 11:51 | 52.05856 | 1.24871 | 18096 ft | 371 kts | 62° |
| 2026-05-05 11:51 | 52.06322 | 1.26437 | 18355 ft | 372 kts | 67° |
| 2026-05-05 11:51 | 52.07262 | 1.30328 | 18957 ft | 376 kts | 70° |
| 2026-05-05 11:51 | 52.08159 | 1.34357 | 19512 ft | 381 kts | 71° |
| 2026-05-05 11:52 | 52.09055 | 1.38439 | 20099 ft | 385 kts | 71° |
| 2026-05-05 11:52 | 52.09960 | 1.42575 | 20660 ft | 390 kts | 71° |
| 2026-05-05 11:52 | 52.10873 | 1.46752 | 21272 ft | 393 kts | 71° |
| 2026-05-05 11:52 | 52.11797 | 1.50975 | 21827 ft | 398 kts | 71° |
| 2026-05-05 11:53 | 52.12729 | 1.55238 | 22408 ft | 401 kts | 71° |
| 2026-05-05 11:53 | 52.13670 | 1.59540 | 22977 ft | 405 kts | 71° |
| 2026-05-05 11:53 | 52.14620 | 1.63884 | 23500 ft | 409 kts | 71° |
| 2026-05-05 11:53 | 52.15579 | 1.68274 | 23948 ft | 413 kts | 71° |
| 2026-05-05 11:54 | 52.16440 | 1.72745 | 24426 ft | 414 kts | 79° |
| 2026-05-05 11:54 | 52.16907 | 1.77381 | 24905 ft | 416 kts | 84° |
| 2026-05-05 11:54 | 52.17150 | 1.80480 | 25188 ft | 418 kts | 85° |
| 2026-05-05 11:54 | 52.17492 | 1.85202 | 25618 ft | 421 kts | 85° |
| 2026-05-05 11:55 | 52.17938 | 1.91506 | 26180 ft | 425 kts | 85° |
| 2026-05-05 11:55 | 52.18277 | 1.96311 | 26596 ft | 428 kts | 85° |
| 2026-05-05 11:55 | 52.18619 | 2.01148 | 27028 ft | 431 kts | 85° |
| 2026-05-05 11:55 | 52.18854 | 2.04440 | 27300 ft | 433 kts | 85° |
| 2026-05-05 11:56 | 52.19202 | 2.09278 | 27692 ft | 436 kts | 85° |